sensor_id;sensor_type;location;lat;lon;timestamp;temperature;humidity
61016;DHT22;46902;52.920;6.536;2023-03-13T00:01:12;8.90;99.90
61016;DHT22;46902;52.920;6.536;2023-03-13T00:03:38;8.90;99.90
61016;DHT22;46902;52.920;6.536;2023-03-13T00:06:04;8.90;99.90
61016;DHT22;46902;52.920;6.536;2023-03-13T00:08:30;8.90;99.90
61016;DHT22;46902;52.920;6.536;2023-03-13T00:10:56;8.90;99.90
61016;DHT22;46902;52.920;6.536;2023-03-13T00:13:21;8.80;99.90
61016;DHT22;46902;52.920;6.536;2023-03-13T00:15:47;8.90;99.90
61016;DHT22;46902;52.920;6.536;2023-03-13T00:18:12;8.80;99.90
61016;DHT22;46902;52.920;6.536;2023-03-13T00:20:38;8.80;99.90
61016;DHT22;46902;52.920;6.536;2023-03-13T00:23:04;8.80;99.90
61016;DHT22;46902;52.920;6.536;2023-03-13T00:25:30;8.80;99.90
61016;DHT22;46902;52.920;6.536;2023-03-13T00:27:55;8.80;99.90
61016;DHT22;46902;52.920;6.536;2023-03-13T00:30:22;8.80;99.90
61016;DHT22;46902;52.920;6.536;2023-03-13T00:32:47;8.80;99.90
61016;DHT22;46902;52.920;6.536;2023-03-13T00:35:13;8.70;99.90
61016;DHT22;46902;52.920;6.536;2023-03-13T00:37:39;8.80;99.90
61016;DHT22;46902;52.920;6.536;2023-03-13T00:40:05;8.70;99.90
61016;DHT22;46902;52.920;6.536;2023-03-13T00:42:32;8.80;99.90
61016;DHT22;46902;52.920;6.536;2023-03-13T00:44:58;8.70;99.90
61016;DHT22;46902;52.920;6.536;2023-03-13T00:47:23;8.70;99.90
61016;DHT22;46902;52.920;6.536;2023-03-13T00:49:49;8.80;99.90
61016;DHT22;46902;52.920;6.536;2023-03-13T00:52:14;8.70;99.90
61016;DHT22;46902;52.920;6.536;2023-03-13T00:54:40;8.70;99.90
61016;DHT22;46902;52.920;6.536;2023-03-13T00:57:06;8.70;99.90
61016;DHT22;46902;52.920;6.536;2023-03-13T00:59:31;8.70;99.90
61016;DHT22;46902;52.920;6.536;2023-03-13T01:01:57;8.70;99.90
61016;DHT22;46902;52.920;6.536;2023-03-13T01:04:23;8.70;99.90
61016;DHT22;46902;52.920;6.536;2023-03-13T01:06:48;8.60;99.90
61016;DHT22;46902;52.920;6.536;2023-03-13T01:09:15;8.70;99.90
61016;DHT22;46902;52.920;6.536;2023-03-13T01:11:42;8.70;99.90
61016;DHT22;46902;52.920;6.536;2023-03-13T01:14:14;8.60;99.90
61016;DHT22;46902;52.920;6.536;2023-03-13T01:16:40;8.70;99.90
61016;DHT22;46902;52.920;6.536;2023-03-13T01:19:09;8.60;99.90
61016;DHT22;46902;52.920;6.536;2023-03-13T01:21:35;8.60;99.90
61016;DHT22;46902;52.920;6.536;2023-03-13T01:24:01;8.70;99.90
61016;DHT22;46902;52.920;6.536;2023-03-13T01:26:27;8.60;99.90
61016;DHT22;46902;52.920;6.536;2023-03-13T01:28:53;8.70;99.90
61016;DHT22;46902;52.920;6.536;2023-03-13T01:31:29;8.70;99.90
61016;DHT22;46902;52.920;6.536;2023-03-13T01:33:57;8.70;99.90
61016;DHT22;46902;52.920;6.536;2023-03-13T01:36:23;8.80;99.90
61016;DHT22;46902;52.920;6.536;2023-03-13T01:38:54;8.80;99.90
61016;DHT22;46902;52.920;6.536;2023-03-13T01:41:21;8.80;99.90
61016;DHT22;46902;52.920;6.536;2023-03-13T01:43:47;8.80;99.90
61016;DHT22;46902;52.920;6.536;2023-03-13T01:46:14;8.80;99.90
61016;DHT22;46902;52.920;6.536;2023-03-13T01:49:05;8.80;99.90
61016;DHT22;46902;52.920;6.536;2023-03-13T01:51:44;8.80;99.90
61016;DHT22;46902;52.920;6.536;2023-03-13T01:54:41;8.80;99.90
61016;DHT22;46902;52.920;6.536;2023-03-13T01:57:26;8.80;99.90
61016;DHT22;46902;52.920;6.536;2023-03-13T02:00:21;8.80;99.90
61016;DHT22;46902;52.920;6.536;2023-03-13T02:02:51;8.80;99.90
61016;DHT22;46902;52.920;6.536;2023-03-13T02:05:19;8.80;99.90
61016;DHT22;46902;52.920;6.536;2023-03-13T02:07:52;8.80;99.90
61016;DHT22;46902;52.920;6.536;2023-03-13T02:10:18;8.80;99.90
61016;DHT22;46902;52.920;6.536;2023-03-13T02:12:47;8.80;99.90
61016;DHT22;46902;52.920;6.536;2023-03-13T02:15:18;8.80;99.90
61016;DHT22;46902;52.920;6.536;2023-03-13T02:17:45;8.70;99.90
61016;DHT22;46902;52.920;6.536;2023-03-13T02:20:13;8.70;99.90
61016;DHT22;46902;52.920;6.536;2023-03-13T02:25:46;8.70;99.90
61016;DHT22;46902;52.920;6.536;2023-03-13T02:30:42;8.70;99.90
61016;DHT22;46902;52.920;6.536;2023-03-13T02:33:08;8.70;99.90
61016;DHT22;46902;52.920;6.536;2023-03-13T02:35:35;8.70;99.90
61016;DHT22;46902;52.920;6.536;2023-03-13T02:38:04;8.70;99.90
61016;DHT22;46902;52.920;6.536;2023-03-13T02:40:34;8.70;99.90
61016;DHT22;46902;52.920;6.536;2023-03-13T02:43:04;8.70;99.90
61016;DHT22;46902;52.920;6.536;2023-03-13T02:45:30;8.70;99.90
61016;DHT22;46902;52.920;6.536;2023-03-13T02:47:55;8.70;99.90
61016;DHT22;46902;52.920;6.536;2023-03-13T02:50:22;8.70;99.90
61016;DHT22;46902;52.920;6.536;2023-03-13T02:52:51;8.70;99.90
61016;DHT22;46902;52.920;6.536;2023-03-13T02:55:35;8.80;99.90
61016;DHT22;46902;52.920;6.536;2023-03-13T02:58:04;8.80;99.90
61016;DHT22;46902;52.920;6.536;2023-03-13T03:00:29;8.80;99.90
61016;DHT22;46902;52.920;6.536;2023-03-13T03:02:55;8.80;99.90
61016;DHT22;46902;52.920;6.536;2023-03-13T03:05:21;8.90;99.90
61016;DHT22;46902;52.920;6.536;2023-03-13T03:07:48;8.80;99.90
61016;DHT22;46902;52.920;6.536;2023-03-13T03:10:15;8.90;99.90
61016;DHT22;46902;52.920;6.536;2023-03-13T03:12:40;8.90;99.90
61016;DHT22;46902;52.920;6.536;2023-03-13T03:15:06;8.90;99.90
61016;DHT22;46902;52.920;6.536;2023-03-13T03:17:32;8.90;99.90
61016;DHT22;46902;52.920;6.536;2023-03-13T03:19:58;9.00;99.90
61016;DHT22;46902;52.920;6.536;2023-03-13T03:22:23;9.00;99.90
61016;DHT22;46902;52.920;6.536;2023-03-13T03:24:49;9.00;99.90
61016;DHT22;46902;52.920;6.536;2023-03-13T03:27:14;9.10;99.90
61016;DHT22;46902;52.920;6.536;2023-03-13T03:29:40;9.20;99.90
61016;DHT22;46902;52.920;6.536;2023-03-13T03:32:05;9.20;99.90
61016;DHT22;46902;52.920;6.536;2023-03-13T03:34:31;9.20;99.90
61016;DHT22;46902;52.920;6.536;2023-03-13T03:36:57;9.20;99.90
61016;DHT22;46902;52.920;6.536;2023-03-13T03:39:23;9.30;99.90
61016;DHT22;46902;52.920;6.536;2023-03-13T03:41:48;9.20;99.90
61016;DHT22;46902;52.920;6.536;2023-03-13T03:44:14;9.30;99.90
61016;DHT22;46902;52.920;6.536;2023-03-13T03:46:40;9.30;99.90
61016;DHT22;46902;52.920;6.536;2023-03-13T03:49:05;9.40;99.90
61016;DHT22;46902;52.920;6.536;2023-03-13T03:51:31;9.40;99.90
61016;DHT22;46902;52.920;6.536;2023-03-13T03:53:56;9.40;99.90
61016;DHT22;46902;52.920;6.536;2023-03-13T03:56:22;9.50;99.90
61016;DHT22;46902;52.920;6.536;2023-03-13T03:58:48;9.50;99.90
61016;DHT22;46902;52.920;6.536;2023-03-13T04:01:13;9.50;99.90
61016;DHT22;46902;52.920;6.536;2023-03-13T04:03:39;9.50;99.90
61016;DHT22;46902;52.920;6.536;2023-03-13T04:06:05;9.60;99.90
61016;DHT22;46902;52.920;6.536;2023-03-13T04:08:31;9.60;99.90
61016;DHT22;46902;52.920;6.536;2023-03-13T04:10:58;9.70;99.90
61016;DHT22;46902;52.920;6.536;2023-03-13T04:13:24;9.70;99.90
61016;DHT22;46902;52.920;6.536;2023-03-13T04:15:50;9.80;99.90
61016;DHT22;46902;52.920;6.536;2023-03-13T04:18:15;9.90;99.90
61016;DHT22;46902;52.920;6.536;2023-03-13T04:20:41;9.90;99.90
61016;DHT22;46902;52.920;6.536;2023-03-13T04:23:06;10.00;99.90
61016;DHT22;46902;52.920;6.536;2023-03-13T04:25:32;10.00;99.90
61016;DHT22;46902;52.920;6.536;2023-03-13T04:27:57;10.00;99.90
61016;DHT22;46902;52.920;6.536;2023-03-13T04:30:23;10.10;99.90
61016;DHT22;46902;52.920;6.536;2023-03-13T04:32:49;10.20;99.90
61016;DHT22;46902;52.920;6.536;2023-03-13T04:35:15;10.20;99.90
61016;DHT22;46902;52.920;6.536;2023-03-13T04:37:41;10.20;99.90
61016;DHT22;46902;52.920;6.536;2023-03-13T04:40:07;10.20;99.90
61016;DHT22;46902;52.920;6.536;2023-03-13T04:42:33;10.30;99.90
61016;DHT22;46902;52.920;6.536;2023-03-13T04:44:59;10.40;99.90
61016;DHT22;46902;52.920;6.536;2023-03-13T04:47:24;10.40;99.90
61016;DHT22;46902;52.920;6.536;2023-03-13T04:49:50;10.50;99.90
61016;DHT22;46902;52.920;6.536;2023-03-13T04:52:15;10.50;99.90
61016;DHT22;46902;52.920;6.536;2023-03-13T04:54:41;10.50;99.90
61016;DHT22;46902;52.920;6.536;2023-03-13T04:57:06;10.60;99.90
61016;DHT22;46902;52.920;6.536;2023-03-13T04:59:32;10.60;99.90
61016;DHT22;46902;52.920;6.536;2023-03-13T05:01:58;10.60;99.90
61016;DHT22;46902;52.920;6.536;2023-03-13T05:04:23;10.60;99.90
61016;DHT22;46902;52.920;6.536;2023-03-13T05:06:49;10.70;99.90
61016;DHT22;46902;52.920;6.536;2023-03-13T05:09:14;10.70;99.90
61016;DHT22;46902;52.920;6.536;2023-03-13T05:11:40;10.80;99.90
61016;DHT22;46902;52.920;6.536;2023-03-13T05:14:07;10.80;99.90
61016;DHT22;46902;52.920;6.536;2023-03-13T05:16:35;10.80;99.90
61016;DHT22;46902;52.920;6.536;2023-03-13T05:19:01;10.90;99.90
61016;DHT22;46902;52.920;6.536;2023-03-13T05:21:26;11.00;99.90
61016;DHT22;46902;52.920;6.536;2023-03-13T05:23:52;11.00;99.90
61016;DHT22;46902;52.920;6.536;2023-03-13T05:26:18;11.10;99.90
61016;DHT22;46902;52.920;6.536;2023-03-13T05:28:43;11.00;99.90
61016;DHT22;46902;52.920;6.536;2023-03-13T05:31:09;11.10;99.90
61016;DHT22;46902;52.920;6.536;2023-03-13T05:33:34;11.00;99.90
61016;DHT22;46902;52.920;6.536;2023-03-13T05:36:00;11.20;99.90
61016;DHT22;46902;52.920;6.536;2023-03-13T05:38:25;11.20;99.90
61016;DHT22;46902;52.920;6.536;2023-03-13T05:40:51;11.10;99.90
61016;DHT22;46902;52.920;6.536;2023-03-13T05:43:16;11.20;99.90
61016;DHT22;46902;52.920;6.536;2023-03-13T05:45:42;11.10;99.90
61016;DHT22;46902;52.920;6.536;2023-03-13T05:48:08;11.10;99.90
61016;DHT22;46902;52.920;6.536;2023-03-13T05:50:33;11.10;99.90
61016;DHT22;46902;52.920;6.536;2023-03-13T05:52:59;11.20;99.90
61016;DHT22;46902;52.920;6.536;2023-03-13T05:55:24;11.20;99.90
61016;DHT22;46902;52.920;6.536;2023-03-13T05:57:50;11.20;99.90
61016;DHT22;46902;52.920;6.536;2023-03-13T06:00:16;11.30;99.90
61016;DHT22;46902;52.920;6.536;2023-03-13T06:02:43;11.20;99.90
61016;DHT22;46902;52.920;6.536;2023-03-13T06:05:09;11.30;99.90
61016;DHT22;46902;52.920;6.536;2023-03-13T06:07:35;11.30;99.90
61016;DHT22;46902;52.920;6.536;2023-03-13T06:10:01;11.30;99.90
61016;DHT22;46902;52.920;6.536;2023-03-13T06:12:26;11.40;99.90
61016;DHT22;46902;52.920;6.536;2023-03-13T06:14:52;11.40;99.90
61016;DHT22;46902;52.920;6.536;2023-03-13T06:17:17;11.40;99.90
61016;DHT22;46902;52.920;6.536;2023-03-13T06:19:44;11.40;99.90
61016;DHT22;46902;52.920;6.536;2023-03-13T06:22:10;11.50;99.90
61016;DHT22;46902;52.920;6.536;2023-03-13T06:24:36;11.50;99.90
61016;DHT22;46902;52.920;6.536;2023-03-13T06:27:01;11.50;99.90
61016;DHT22;46902;52.920;6.536;2023-03-13T06:29:27;11.60;99.90
61016;DHT22;46902;52.920;6.536;2023-03-13T06:31:52;11.60;99.90
61016;DHT22;46902;52.920;6.536;2023-03-13T06:34:18;11.50;99.90
61016;DHT22;46902;52.920;6.536;2023-03-13T06:36:44;11.60;99.90
61016;DHT22;46902;52.920;6.536;2023-03-13T06:39:10;11.70;99.90
61016;DHT22;46902;52.920;6.536;2023-03-13T06:41:36;11.70;99.90
61016;DHT22;46902;52.920;6.536;2023-03-13T06:44:02;11.60;99.90
61016;DHT22;46902;52.920;6.536;2023-03-13T06:46:28;11.60;99.90
61016;DHT22;46902;52.920;6.536;2023-03-13T06:48:54;11.60;99.90
61016;DHT22;46902;52.920;6.536;2023-03-13T06:51:21;11.70;99.90
61016;DHT22;46902;52.920;6.536;2023-03-13T06:53:47;11.80;99.90
61016;DHT22;46902;52.920;6.536;2023-03-13T06:56:13;11.80;99.90
61016;DHT22;46902;52.920;6.536;2023-03-13T06:58:38;11.90;99.90
61016;DHT22;46902;52.920;6.536;2023-03-13T07:01:09;11.90;99.90
61016;DHT22;46902;52.920;6.536;2023-03-13T07:03:35;11.90;99.90
61016;DHT22;46902;52.920;6.536;2023-03-13T07:06:01;11.80;99.90
61016;DHT22;46902;52.920;6.536;2023-03-13T07:08:27;12.00;99.90
61016;DHT22;46902;52.920;6.536;2023-03-13T07:11:00;12.00;99.90
61016;DHT22;46902;52.920;6.536;2023-03-13T07:13:27;12.00;99.90
61016;DHT22;46902;52.920;6.536;2023-03-13T07:15:52;11.80;99.90
61016;DHT22;46902;52.920;6.536;2023-03-13T07:18:19;11.90;99.90
61016;DHT22;46902;52.920;6.536;2023-03-13T07:20:44;11.80;99.90
61016;DHT22;46902;52.920;6.536;2023-03-13T07:23:15;11.90;99.90
61016;DHT22;46902;52.920;6.536;2023-03-13T07:25:41;11.90;99.90
61016;DHT22;46902;52.920;6.536;2023-03-13T07:28:06;11.90;99.90
61016;DHT22;46902;52.920;6.536;2023-03-13T07:30:32;11.90;99.90
61016;DHT22;46902;52.920;6.536;2023-03-13T07:32:58;11.90;99.90
61016;DHT22;46902;52.920;6.536;2023-03-13T07:35:23;12.00;99.90
61016;DHT22;46902;52.920;6.536;2023-03-13T07:37:49;12.00;99.90
61016;DHT22;46902;52.920;6.536;2023-03-13T07:40:14;12.00;99.90
61016;DHT22;46902;52.920;6.536;2023-03-13T07:42:40;11.90;99.90
61016;DHT22;46902;52.920;6.536;2023-03-13T07:45:07;12.00;99.90
61016;DHT22;46902;52.920;6.536;2023-03-13T07:47:33;12.00;99.90
61016;DHT22;46902;52.920;6.536;2023-03-13T07:49:59;12.00;99.90
61016;DHT22;46902;52.920;6.536;2023-03-13T07:52:25;12.00;99.90
61016;DHT22;46902;52.920;6.536;2023-03-13T07:54:52;11.90;99.90
61016;DHT22;46902;52.920;6.536;2023-03-13T07:57:18;11.90;99.90
61016;DHT22;46902;52.920;6.536;2023-03-13T07:59:43;11.90;99.90
61016;DHT22;46902;52.920;6.536;2023-03-13T08:02:11;11.90;99.90
61016;DHT22;46902;52.920;6.536;2023-03-13T08:04:38;11.90;99.90
61016;DHT22;46902;52.920;6.536;2023-03-13T08:07:08;11.90;99.90
61016;DHT22;46902;52.920;6.536;2023-03-13T08:09:33;11.90;99.90
61016;DHT22;46902;52.920;6.536;2023-03-13T08:11:59;11.90;99.90
61016;DHT22;46902;52.920;6.536;2023-03-13T08:14:25;11.80;99.90
61016;DHT22;46902;52.920;6.536;2023-03-13T08:16:50;11.80;99.90
61016;DHT22;46902;52.920;6.536;2023-03-13T08:19:16;11.80;99.90
61016;DHT22;46902;52.920;6.536;2023-03-13T08:21:41;11.60;99.90
61016;DHT22;46902;52.920;6.536;2023-03-13T08:24:09;11.70;99.90
61016;DHT22;46902;52.920;6.536;2023-03-13T08:26:37;11.60;99.90
61016;DHT22;46902;52.920;6.536;2023-03-13T08:29:07;11.60;99.90
61016;DHT22;46902;52.920;6.536;2023-03-13T08:31:50;11.60;99.90
61016;DHT22;46902;52.920;6.536;2023-03-13T08:34:17;11.80;99.90
61016;DHT22;46902;52.920;6.536;2023-03-13T08:36:43;11.80;99.90
61016;DHT22;46902;52.920;6.536;2023-03-13T08:39:15;11.70;99.90
61016;DHT22;46902;52.920;6.536;2023-03-13T08:41:41;11.70;99.90
61016;DHT22;46902;52.920;6.536;2023-03-13T08:44:12;11.80;99.90
61016;DHT22;46902;52.920;6.536;2023-03-13T08:46:38;11.80;99.90
61016;DHT22;46902;52.920;6.536;2023-03-13T08:49:05;11.80;99.90
61016;DHT22;46902;52.920;6.536;2023-03-13T08:51:31;11.90;99.90
61016;DHT22;46902;52.920;6.536;2023-03-13T08:53:56;11.70;99.90
61016;DHT22;46902;52.920;6.536;2023-03-13T08:56:25;11.80;99.90
61016;DHT22;46902;52.920;6.536;2023-03-13T08:58:56;11.90;99.90
61016;DHT22;46902;52.920;6.536;2023-03-13T09:01:23;12.20;99.90
61016;DHT22;46902;52.920;6.536;2023-03-13T09:03:50;12.30;99.90
61016;DHT22;46902;52.920;6.536;2023-03-13T09:06:15;12.30;99.90
61016;DHT22;46902;52.920;6.536;2023-03-13T09:08:42;12.40;99.90
61016;DHT22;46902;52.920;6.536;2023-03-13T09:11:19;12.40;99.90
61016;DHT22;46902;52.920;6.536;2023-03-13T09:13:47;12.40;99.90
61016;DHT22;46902;52.920;6.536;2023-03-13T09:16:19;12.40;99.90
61016;DHT22;46902;52.920;6.536;2023-03-13T09:18:46;12.40;99.90
61016;DHT22;46902;52.920;6.536;2023-03-13T09:21:14;12.30;99.90
61016;DHT22;46902;52.920;6.536;2023-03-13T09:23:41;12.30;99.90
61016;DHT22;46902;52.920;6.536;2023-03-13T09:26:06;12.30;99.90
61016;DHT22;46902;52.920;6.536;2023-03-13T09:28:32;12.30;99.90
61016;DHT22;46902;52.920;6.536;2023-03-13T09:31:12;12.30;99.90
61016;DHT22;46902;52.920;6.536;2023-03-13T09:33:39;12.20;99.90
61016;DHT22;46902;52.920;6.536;2023-03-13T09:36:05;12.20;99.90
61016;DHT22;46902;52.920;6.536;2023-03-13T09:38:31;12.20;99.90
61016;DHT22;46902;52.920;6.536;2023-03-13T09:43:57;12.20;99.90
61016;DHT22;46902;52.920;6.536;2023-03-13T09:51:42;12.30;99.90
61016;DHT22;46902;52.920;6.536;2023-03-13T09:54:30;12.40;99.90
61016;DHT22;46902;52.920;6.536;2023-03-13T09:57:04;12.50;99.90
61016;DHT22;46902;52.920;6.536;2023-03-13T10:01:58;12.90;99.90
61016;DHT22;46902;52.920;6.536;2023-03-13T10:04:37;12.90;99.90
61016;DHT22;46902;52.920;6.536;2023-03-13T10:07:07;13.70;99.90
61016;DHT22;46902;52.920;6.536;2023-03-13T10:09:34;13.90;99.90
61016;DHT22;46902;52.920;6.536;2023-03-13T10:12:20;13.80;99.90
61016;DHT22;46902;52.920;6.536;2023-03-13T10:15:11;13.70;99.90
61016;DHT22;46902;52.920;6.536;2023-03-13T10:17:40;13.50;99.90
61016;DHT22;46902;52.920;6.536;2023-03-13T10:22:38;13.30;99.90
61016;DHT22;46902;52.920;6.536;2023-03-13T10:27:50;13.20;99.90
61016;DHT22;46902;52.920;6.536;2023-03-13T10:30:30;13.20;99.90
61016;DHT22;46902;52.920;6.536;2023-03-13T10:33:19;13.20;99.90
61016;DHT22;46902;52.920;6.536;2023-03-13T10:35:45;13.30;99.90
61016;DHT22;46902;52.920;6.536;2023-03-13T10:38:19;13.20;99.90
61016;DHT22;46902;52.920;6.536;2023-03-13T10:41:00;13.30;99.90
61016;DHT22;46902;52.920;6.536;2023-03-13T10:43:29;13.40;99.90
61016;DHT22;46902;52.920;6.536;2023-03-13T10:45:55;13.40;99.90
61016;DHT22;46902;52.920;6.536;2023-03-13T10:48:35;13.40;99.90
61016;DHT22;46902;52.920;6.536;2023-03-13T10:51:01;13.50;99.90
61016;DHT22;46902;52.920;6.536;2023-03-13T10:56:13;13.60;99.90
61016;DHT22;46902;52.920;6.536;2023-03-13T10:58:44;13.60;99.90
61016;DHT22;46902;52.920;6.536;2023-03-13T11:01:28;13.70;99.90
61016;DHT22;46902;52.920;6.536;2023-03-13T11:03:58;14.10;99.90
61016;DHT22;46902;52.920;6.536;2023-03-13T11:06:32;14.10;99.90
61016;DHT22;46902;52.920;6.536;2023-03-13T11:09:16;14.20;99.90
61016;DHT22;46902;52.920;6.536;2023-03-13T11:11:44;14.10;99.90
61016;DHT22;46902;52.920;6.536;2023-03-13T11:14:16;14.10;99.90
61016;DHT22;46902;52.920;6.536;2023-03-13T11:16:55;14.20;99.90
61016;DHT22;46902;52.920;6.536;2023-03-13T11:19:54;14.20;99.90
61016;DHT22;46902;52.920;6.536;2023-03-13T11:22:43;14.20;99.90
61016;DHT22;46902;52.920;6.536;2023-03-13T11:25:30;14.10;99.90
61016;DHT22;46902;52.920;6.536;2023-03-13T11:36:16;14.20;99.90
61016;DHT22;46902;52.920;6.536;2023-03-13T11:38:48;14.30;99.90
61016;DHT22;46902;52.920;6.536;2023-03-13T11:41:32;14.40;99.90
61016;DHT22;46902;52.920;6.536;2023-03-13T11:44:21;14.60;99.90
61016;DHT22;46902;52.920;6.536;2023-03-13T11:49:53;14.50;99.90
61016;DHT22;46902;52.920;6.536;2023-03-13T11:52:50;14.60;99.90
61016;DHT22;46902;52.920;6.536;2023-03-13T12:01:10;14.60;99.90
61016;DHT22;46902;52.920;6.536;2023-03-13T12:03:55;14.70;99.90
61016;DHT22;46902;52.920;6.536;2023-03-13T12:06:44;14.80;99.90
61016;DHT22;46902;52.920;6.536;2023-03-13T12:09:15;14.90;99.90
61016;DHT22;46902;52.920;6.536;2023-03-13T12:12:02;14.90;99.90
61016;DHT22;46902;52.920;6.536;2023-03-13T12:14:45;14.90;99.90
61016;DHT22;46902;52.920;6.536;2023-03-13T12:17:32;14.90;99.90
61016;DHT22;46902;52.920;6.536;2023-03-13T12:20:12;14.90;99.90
61016;DHT22;46902;52.920;6.536;2023-03-13T12:22:47;14.90;99.90
61016;DHT22;46902;52.920;6.536;2023-03-13T12:25:20;14.80;99.90
61016;DHT22;46902;52.920;6.536;2023-03-13T12:28:05;14.80;99.90
61016;DHT22;46902;52.920;6.536;2023-03-13T12:30:41;14.90;99.90
61016;DHT22;46902;52.920;6.536;2023-03-13T12:33:37;15.20;99.90
61016;DHT22;46902;52.920;6.536;2023-03-13T12:36:27;15.30;99.90
61016;DHT22;46902;52.920;6.536;2023-03-13T12:38:55;15.70;99.90
61016;DHT22;46902;52.920;6.536;2023-03-13T12:41:32;16.10;99.90
61016;DHT22;46902;52.920;6.536;2023-03-13T12:44:00;16.30;99.90
61016;DHT22;46902;52.920;6.536;2023-03-13T12:46:43;16.50;99.90
61016;DHT22;46902;52.920;6.536;2023-03-13T12:49:28;16.30;99.90
61016;DHT22;46902;52.920;6.536;2023-03-13T12:52:50;16.00;99.90
61016;DHT22;46902;52.920;6.536;2023-03-13T12:55:21;15.70;99.90
61016;DHT22;46902;52.920;6.536;2023-03-13T13:00:28;15.30;99.90
61016;DHT22;46902;52.920;6.536;2023-03-13T13:03:36;15.20;99.90
61016;DHT22;46902;52.920;6.536;2023-03-13T13:06:06;15.20;99.90
61016;DHT22;46902;52.920;6.536;2023-03-13T13:08:42;15.20;99.90
61016;DHT22;46902;52.920;6.536;2023-03-13T13:17:11;15.30;99.90
61016;DHT22;46902;52.920;6.536;2023-03-13T13:30:34;15.30;99.90
61016;DHT22;46902;52.920;6.536;2023-03-13T13:35:45;15.90;99.90
61016;DHT22;46902;52.920;6.536;2023-03-13T13:43:39;16.50;99.90
61016;DHT22;46902;52.920;6.536;2023-03-13T13:46:30;16.60;99.90
61016;DHT22;46902;52.920;6.536;2023-03-13T13:51:36;16.80;99.20
61016;DHT22;46902;52.920;6.536;2023-03-13T13:56:49;16.60;99.00
61016;DHT22;46902;52.920;6.536;2023-03-13T14:02:15;16.30;99.20
61016;DHT22;46902;52.920;6.536;2023-03-13T14:07:18;16.30;99.00
61016;DHT22;46902;52.920;6.536;2023-03-13T14:09:53;16.00;98.70
61016;DHT22;46902;52.920;6.536;2023-03-13T14:12:31;15.90;99.50
61016;DHT22;46902;52.920;6.536;2023-03-13T14:15:18;16.00;98.90
61016;DHT22;46902;52.920;6.536;2023-03-13T14:20:50;16.20;97.90
61016;DHT22;46902;52.920;6.536;2023-03-13T14:25:53;16.40;97.20
61016;DHT22;46902;52.920;6.536;2023-03-13T14:28:22;16.40;96.70
61016;DHT22;46902;52.920;6.536;2023-03-13T14:30:50;16.50;96.40
61016;DHT22;46902;52.920;6.536;2023-03-13T14:33:17;16.50;96.00
61016;DHT22;46902;52.920;6.536;2023-03-13T14:35:42;16.40;95.30
61016;DHT22;46902;52.920;6.536;2023-03-13T14:38:16;16.20;95.50
61016;DHT22;46902;52.920;6.536;2023-03-13T14:40:43;16.20;95.70
61016;DHT22;46902;52.920;6.536;2023-03-13T14:45:55;16.20;95.50
61016;DHT22;46902;52.920;6.536;2023-03-13T14:48:33;16.10;95.90
61016;DHT22;46902;52.920;6.536;2023-03-13T14:51:08;16.10;95.30
61016;DHT22;46902;52.920;6.536;2023-03-13T14:53:35;16.10;95.50
61016;DHT22;46902;52.920;6.536;2023-03-13T14:56:16;16.00;95.60
61016;DHT22;46902;52.920;6.536;2023-03-13T14:58:46;16.10;94.90
61016;DHT22;46902;52.920;6.536;2023-03-13T15:01:27;16.00;95.30
61016;DHT22;46902;52.920;6.536;2023-03-13T15:03:55;16.00;94.00
61016;DHT22;46902;52.920;6.536;2023-03-13T15:06:23;15.90;94.30
61016;DHT22;46902;52.920;6.536;2023-03-13T15:11:59;15.80;93.70
61016;DHT22;46902;52.920;6.536;2023-03-13T15:14:40;15.70;94.10
61016;DHT22;46902;52.920;6.536;2023-03-13T15:19:37;15.30;94.60
61016;DHT22;46902;52.920;6.536;2023-03-13T15:22:03;15.20;94.70
61016;DHT22;46902;52.920;6.536;2023-03-13T15:24:28;15.20;95.30
61016;DHT22;46902;52.920;6.536;2023-03-13T15:26:54;15.20;95.50
61016;DHT22;46902;52.920;6.536;2023-03-13T15:29:19;15.10;95.50
61016;DHT22;46902;52.920;6.536;2023-03-13T15:31:45;15.10;94.90
61016;DHT22;46902;52.920;6.536;2023-03-13T15:34:13;15.10;95.10
61016;DHT22;46902;52.920;6.536;2023-03-13T15:36:39;15.00;94.40
61016;DHT22;46902;52.920;6.536;2023-03-13T15:39:15;15.00;94.40
61016;DHT22;46902;52.920;6.536;2023-03-13T15:41:43;15.00;93.60
61016;DHT22;46902;52.920;6.536;2023-03-13T15:44:09;14.80;93.70
61016;DHT22;46902;52.920;6.536;2023-03-13T15:46:35;14.70;94.00
61016;DHT22;46902;52.920;6.536;2023-03-13T15:49:00;14.70;94.10
61016;DHT22;46902;52.920;6.536;2023-03-13T15:51:26;14.60;94.00
61016;DHT22;46902;52.920;6.536;2023-03-13T15:53:52;14.60;93.90
61016;DHT22;46902;52.920;6.536;2023-03-13T15:56:20;14.60;94.40
61016;DHT22;46902;52.920;6.536;2023-03-13T15:58:48;14.60;94.60
61016;DHT22;46902;52.920;6.536;2023-03-13T16:01:15;14.60;94.40
61016;DHT22;46902;52.920;6.536;2023-03-13T16:03:41;14.50;94.40
61016;DHT22;46902;52.920;6.536;2023-03-13T16:06:14;14.40;94.60
61016;DHT22;46902;52.920;6.536;2023-03-13T16:08:40;14.30;94.60
61016;DHT22;46902;52.920;6.536;2023-03-13T16:11:06;14.20;94.70
61016;DHT22;46902;52.920;6.536;2023-03-13T16:13:31;14.20;95.10
61016;DHT22;46902;52.920;6.536;2023-03-13T16:15:57;14.10;95.20
61016;DHT22;46902;52.920;6.536;2023-03-13T16:18:23;14.00;95.40
61016;DHT22;46902;52.920;6.536;2023-03-13T16:20:50;14.00;95.60
61016;DHT22;46902;52.920;6.536;2023-03-13T16:23:17;13.90;95.80
61016;DHT22;46902;52.920;6.536;2023-03-13T16:25:46;13.90;95.90
61016;DHT22;46902;52.920;6.536;2023-03-13T16:28:13;13.90;96.20
61016;DHT22;46902;52.920;6.536;2023-03-13T16:30:40;13.90;96.30
61016;DHT22;46902;52.920;6.536;2023-03-13T16:33:08;13.90;96.50
61016;DHT22;46902;52.920;6.536;2023-03-13T16:35:34;13.90;96.30
61016;DHT22;46902;52.920;6.536;2023-03-13T16:38:00;13.80;96.50
61016;DHT22;46902;52.920;6.536;2023-03-13T16:40:32;13.80;96.50
61016;DHT22;46902;52.920;6.536;2023-03-13T16:42:58;13.70;96.50
61016;DHT22;46902;52.920;6.536;2023-03-13T16:45:23;13.70;96.40
61016;DHT22;46902;52.920;6.536;2023-03-13T16:47:49;13.70;96.30
61016;DHT22;46902;52.920;6.536;2023-03-13T16:50:31;13.60;96.10
61016;DHT22;46902;52.920;6.536;2023-03-13T16:52:57;13.60;96.20
61016;DHT22;46902;52.920;6.536;2023-03-13T16:55:24;13.50;96.10
61016;DHT22;46902;52.920;6.536;2023-03-13T16:57:56;13.40;96.30
61016;DHT22;46902;52.920;6.536;2023-03-13T17:00:24;13.30;96.20
61016;DHT22;46902;52.920;6.536;2023-03-13T17:02:50;13.20;96.50
61016;DHT22;46902;52.920;6.536;2023-03-13T17:05:17;13.10;96.50
61016;DHT22;46902;52.920;6.536;2023-03-13T17:07:44;13.10;96.60
61016;DHT22;46902;52.920;6.536;2023-03-13T17:10:16;13.00;96.70
61016;DHT22;46902;52.920;6.536;2023-03-13T17:12:42;12.90;96.70
61016;DHT22;46902;52.920;6.536;2023-03-13T17:15:08;12.80;96.90
61016;DHT22;46902;52.920;6.536;2023-03-13T17:17:34;12.80;97.00
61016;DHT22;46902;52.920;6.536;2023-03-13T17:20:00;12.70;97.10
61016;DHT22;46902;52.920;6.536;2023-03-13T17:22:25;12.70;97.20